Thunder radar more information blitzortung!


Radar de pluja more information rain snow radar


Visita la nostra xarxa de llocs de meteo:

Template documentation
and downloads

And another site



No particular awareness of the weather is required.    There are no Weather-warnings

Pagina Historial Weather Underground text

Diari Resum Juny 1, 2017 Unitats:  Mètric    Imperial   Tant
« Previous Dia
SegĂźent Dia »
Diari Setmana Mensual Anual Personalitzada
  Maxima: Minima: Media:
Temperatura: 29.4 °C 15.7 °C 24.1 °C
Punt de rosada: 12.8 °C 7.6 °C 10.1 °C
Humitat: 70 % 29 % 43 %
Wind Speed: 18.5 km/h 0.0 km/h 6.4 km/h
RĂ fegues de vent: 18.5 km/h - -
Vent:- - South
Pression baro: 1019.9 hPa 1015.8 hPa -
Precipitacions: 0.0 mm    
Historical Graphs
 
 
Dades de taula per Juny 1, 2017
Temps Temperatura Punt de rosada Pression baro Vent Wind Speed RĂ fegues de vent Humitat Rainfall Rate (Hourly)
00:01 18.9 °C 10.4 °C 1019.9 hPa Calm     58 % 0.0 mm
00:05 16.5 °C 9.4 °C 1017.8 hPa East 1.6 km/h 3.2 km/h 63 % 0.0 mm
00:06 18.9 °C 10.4 °C 1019.9 hPa Calm     58 % 0.0 mm
00:15 16.4 °C 9.3 °C 1017.8 hPa Calm   3.2 km/h 63 % 0.0 mm
00:25 16.2 °C 9.2 °C 1017.8 hPa Calm   1.6 km/h 63 % 0.0 mm
00:35 16.0 °C 8.9 °C 1016.8 hPa Calm   3.2 km/h 63 % 0.0 mm
00:45 16.0 °C 8.9 °C 1016.8 hPa Calm     63 % 0.0 mm
00:55 15.8 °C 8.8 °C 1017.8 hPa Calm     63 % 0.0 mm
01:05 15.8 °C 9.0 °C 1017.8 hPa Calm     64 % 0.0 mm
01:15 15.8 °C 9.0 °C 1017.8 hPa Calm   1.6 km/h 64 % 0.0 mm
01:25 15.9 °C 8.8 °C 1017.8 hPa NNE 1.6 km/h 1.6 km/h 63 % 0.0 mm
01:35 16.1 °C 9.3 °C 1017.8 hPa North 1.6 km/h 1.6 km/h 64 % 0.0 mm
01:45 16.0 °C 9.2 °C 1017.8 hPa Calm     64 % 0.0 mm
01:55 15.8 °C 9.2 °C 1017.8 hPa Calm     65 % 0.0 mm
02:05 15.7 °C 8.9 °C 1017.8 hPa NW 1.6 km/h 1.6 km/h 64 % 0.0 mm
02:15 15.8 °C 9.0 °C 1017.8 hPa Calm   1.6 km/h 64 % 0.0 mm
02:25 16.3 °C 9.2 °C 1018.8 hPa WSW 1.6 km/h 3.2 km/h 63 % 0.0 mm
02:35 17.1 °C 10.0 °C 1018.8 hPa Calm   1.6 km/h 63 % 0.0 mm
02:45 17.6 °C 10.2 °C 1018.8 hPa Calm   3.2 km/h 62 % 0.0 mm
02:55 18.0 °C 10.1 °C 1018.8 hPa SE 1.6 km/h 3.2 km/h 60 % 0.0 mm
03:05 18.1 °C 10.2 °C 1018.8 hPa SSE 1.6 km/h 3.2 km/h 60 % 0.0 mm
03:15 18.5 °C 10.3 °C 1018.8 hPa Calm   3.2 km/h 59 % 0.0 mm
03:25 18.7 °C 10.5 °C 1018.8 hPa ENE 1.6 km/h 4.8 km/h 59 % 0.0 mm
03:35 19.0 °C 10.6 °C 1018.8 hPa NE 1.6 km/h 4.8 km/h 58 % 0.0 mm
03:45 19.8 °C 11.3 °C 1018.8 hPa NE 1.6 km/h 3.2 km/h 58 % 0.0 mm
04:05 20.4 °C 11.3 °C 1018.8 hPa NNE 3.2 km/h 4.8 km/h 56 % 0.0 mm
04:15 20.7 °C 11.6 °C 1018.8 hPa NE 4.8 km/h 4.8 km/h 56 % 0.0 mm
04:25 20.9 °C 11.5 °C 1018.8 hPa NNE 4.8 km/h 4.8 km/h 55 % 0.0 mm
04:35 21.4 °C 11.4 °C 1018.8 hPa NNE 4.8 km/h 6.4 km/h 53 % 0.0 mm
04:45 22.1 °C 12.1 °C 1018.8 hPa NE 3.2 km/h 4.8 km/h 53 % 0.0 mm
04:55 22.1 °C 11.5 °C 1018.8 hPa ENE 1.6 km/h 6.4 km/h 51 % 0.0 mm
05:05 23.3 °C 12.3 °C 1018.8 hPa ENE 1.6 km/h 1.6 km/h 50 % 0.0 mm
05:15 23.7 °C 12.3 °C 1018.8 hPa Calm   4.8 km/h 49 % 0.0 mm
05:25 23.4 °C 11.8 °C 1018.8 hPa ENE 1.6 km/h 6.4 km/h 48 % 0.0 mm
05:35 23.6 °C 11.6 °C 1018.8 hPa ENE 4.8 km/h 6.4 km/h 47 % 0.0 mm
05:45 24.4 °C 12.0 °C 1018.8 hPa ESE 3.2 km/h 4.8 km/h 46 % 0.0 mm
05:55 25.2 °C 12.4 °C 1018.8 hPa SSE 1.6 km/h 6.4 km/h 45 % 0.0 mm
06:05 25.5 °C 12.3 °C 1018.8 hPa SW 1.6 km/h 3.2 km/h 44 % 0.0 mm
11:08 26.0 °C 12.8 °C 1018.8 hPa SW 6.9 km/h 6.9 km/h 44 % 0.0 mm
11:13 25.3 °C 11.8 °C 1018.8 hPa SE 5.6 km/h 5.6 km/h 43 % 0.0 mm
11:18 25.9 °C 12.3 °C 1018.8 hPa SSW 5.6 km/h 5.6 km/h 43 % 0.0 mm
11:23 25.7 °C 12.2 °C 1018.8 hPa West 7.9 km/h 7.9 km/h 43 % 0.0 mm
11:28 25.4 °C 11.9 °C 1018.8 hPa WSW 9.3 km/h 9.3 km/h 43 % 0.0 mm
11:33 25.2 °C 11.7 °C 1018.8 hPa WSW 9.3 km/h 9.3 km/h 43 % 0.0 mm
11:38 25.3 °C 11.4 °C 1018.8 hPa SW 9.3 km/h 9.3 km/h 42 % 0.0 mm
11:43 25.7 °C 11.8 °C 1018.8 hPa SSW 7.4 km/h 7.4 km/h 42 % 0.0 mm
11:48 25.6 °C 11.4 °C 1018.8 hPa SW 9.3 km/h 9.3 km/h 41 % 0.0 mm
11:53 26.4 °C 12.1 °C 1018.8 hPa WSW 1.9 km/h   41 % 0.0 mm
11:58 26.1 °C 11.8 °C 1018.8 hPa SW 7.4 km/h 7.4 km/h 41 % 0.0 mm
12:03 26.5 °C 11.8 °C 1018.8 hPa ESE 9.3 km/h 9.3 km/h 40 % 0.0 mm
12:04 26.5 °C 11.8 °C 1018.8 hPa NE 6.9 km/h 6.9 km/h 40 % 0.0 mm
12:09 25.7 °C 10.7 °C 1018.8 hPa ESE 11.1 km/h 11.1 km/h 39 % 0.0 mm
12:14 26.7 °C 12.0 °C 1018.8 hPa WSW 7.4 km/h 7.4 km/h 40 % 0.0 mm
12:19 27.5 °C 11.9 °C 1018.8 hPa SW 7.4 km/h 7.4 km/h 38 % 0.0 mm
12:24 27.0 °C 11.4 °C 1018.8 hPa WNW 5.6 km/h 5.6 km/h 38 % 0.0 mm
12:29 27.2 °C 11.7 °C 1018.8 hPa SSW 3.7 km/h 3.7 km/h 38 % 0.0 mm
12:34 27.3 °C 11.7 °C 1018.8 hPa SE 7.4 km/h 7.4 km/h 38 % 0.0 mm
12:39 27.5 °C 11.9 °C 1018.8 hPa SSE 14.8 km/h 14.8 km/h 38 % 0.0 mm
12:44 27.7 °C 11.7 °C 1018.8 hPa ESE 3.7 km/h 3.7 km/h 37 % 0.0 mm
12:49 27.4 °C 11.8 °C 1018.8 hPa SSE 9.3 km/h 9.3 km/h 38 % 0.0 mm
12:54 26.6 °C 11.5 °C 1018.8 hPa ENE 5.8 km/h 5.8 km/h 39 % 0.0 mm
12:59 27.2 °C 12.1 °C 1018.8 hPa West 11.1 km/h 11.1 km/h 39 % 0.0 mm
13:04 27.7 °C 12.5 °C 1018.8 hPa SE 7.4 km/h 7.4 km/h 39 % 0.0 mm
13:09 27.5 °C 12.3 °C 1018.8 hPa ESE 9.7 km/h 9.7 km/h 39 % 0.0 mm
13:14 26.9 °C 11.8 °C 1018.8 hPa SSE 14.8 km/h 14.8 km/h 39 % 0.0 mm
13:19 26.8 °C 11.7 °C 1017.8 hPa NNE 14.8 km/h 14.8 km/h 39 % 0.0 mm
13:24 26.5 °C 11.4 °C 1017.8 hPa ENE 11.1 km/h 11.1 km/h 39 % 0.0 mm
13:29 26.7 °C 11.6 °C 1017.8 hPa ESE 16.7 km/h 16.7 km/h 39 % 0.0 mm
13:34 26.8 °C 11.3 °C 1017.8 hPa ENE 13.0 km/h 13.0 km/h 38 % 0.0 mm
13:39 27.7 °C 12.1 °C 1017.8 hPa South 5.6 km/h 5.6 km/h 38 % 0.0 mm
13:44 28.5 °C 12.4 °C 1017.8 hPa South 9.3 km/h 9.3 km/h 37 % 0.0 mm
13:49 28.5 °C 12.0 °C 1016.8 hPa SSE 12.2 km/h 12.2 km/h 36 % 0.0 mm
13:54 29.0 °C 12.0 °C 1016.8 hPa SW 9.3 km/h 9.3 km/h 35 % 0.0 mm
13:59 29.2 °C 12.2 °C 1016.8 hPa SW 13.0 km/h 13.0 km/h 35 % 0.0 mm
14:04 29.2 °C 12.2 °C 1017.8 hPa SSE 9.3 km/h 9.3 km/h 35 % 0.0 mm
14:09 28.6 °C 11.6 °C 1017.8 hPa SW 13.0 km/h 13.0 km/h 35 % 0.0 mm
14:14 28.8 °C 10.9 °C 1017.8 hPa South 6.1 km/h 6.1 km/h 33 % 0.0 mm
14:19 29.0 °C 11.1 °C 1017.8 hPa SSW 3.9 km/h 3.9 km/h 33 % 0.0 mm
14:24 29.0 °C 11.1 °C 1017.8 hPa SSE 11.1 km/h 11.1 km/h 33 % 0.0 mm
14:29 28.7 °C 11.3 °C 1017.8 hPa SW 16.7 km/h 16.7 km/h 34 % 0.0 mm
14:34 29.1 °C 10.7 °C 1017.8 hPa West 12.2 km/h 12.2 km/h 32 % 0.0 mm
14:39 28.7 °C 10.4 °C 1017.8 hPa South 5.6 km/h 5.6 km/h 32 % 0.0 mm
14:44 29.0 °C 10.6 °C 1017.8 hPa WSW 9.3 km/h 9.3 km/h 32 % 0.0 mm
14:49 29.0 °C 10.2 °C 1017.8 hPa SSW 13.0 km/h 13.0 km/h 31 % 0.0 mm
14:54 28.8 °C 10.0 °C 1017.8 hPa SW 13.0 km/h 13.0 km/h 31 % 0.0 mm
14:59 29.1 °C 10.2 °C 1017.8 hPa South 15.8 km/h 15.8 km/h 31 % 0.0 mm
15:04 29.1 °C 10.2 °C 1017.8 hPa SW 5.6 km/h 5.6 km/h 31 % 0.0 mm
15:09 29.4 °C 10.5 °C 1017.8 hPa SW 13.0 km/h 13.0 km/h 31 % 0.0 mm
15:14 28.8 °C 10.0 °C 1017.8 hPa SW 9.3 km/h 9.3 km/h 31 % 0.0 mm
15:19 28.9 °C 10.1 °C 1017.8 hPa SW 13.0 km/h 13.0 km/h 31 % 0.0 mm
15:24 29.1 °C 9.8 °C 1017.8 hPa SW 5.8 km/h 5.8 km/h 30 % 0.0 mm
15:29 29.3 °C 9.9 °C 1017.8 hPa WSW 11.1 km/h 11.1 km/h 30 % 0.0 mm
15:34 28.9 °C 9.6 °C 1017.8 hPa SSW 13.0 km/h 13.0 km/h 30 % 0.0 mm
15:39 29.2 °C 9.8 °C 1017.8 hPa WSW 7.9 km/h 7.9 km/h 30 % 0.0 mm
15:44 29.1 °C 9.2 °C 1017.8 hPa South 13.0 km/h 13.0 km/h 29 % 0.0 mm
15:49 29.4 °C 10.0 °C 1017.8 hPa SSW 13.0 km/h 13.0 km/h 30 % 0.0 mm
15:54 28.7 °C 9.4 °C 1017.8 hPa WSW 9.3 km/h 9.3 km/h 30 % 0.0 mm
15:55 28.7 °C 9.4 °C 1017.8 hPa SW 9.3 km/h 9.3 km/h 30 % 0.0 mm
16:00 29.0 °C 9.2 °C 1017.8 hPa SW 14.0 km/h 14.0 km/h 29 % 0.0 mm
16:05 28.8 °C 9.5 °C 1017.8 hPa SSW 13.0 km/h 13.0 km/h 30 % 0.0 mm
16:10 29.1 °C 9.2 °C 1017.8 hPa SW 18.3 km/h 18.3 km/h 29 % 0.0 mm
16:15 28.7 °C 9.4 °C 1017.8 hPa WSW 16.7 km/h 16.7 km/h 30 % 0.0 mm
16:20 28.7 °C 9.4 °C 1016.8 hPa SW 13.0 km/h 13.0 km/h 30 % 0.0 mm
16:25 28.7 °C 9.4 °C 1016.8 hPa South 9.3 km/h 9.3 km/h 30 % 0.0 mm
16:30 28.9 °C 9.6 °C 1016.8 hPa SW 9.3 km/h 9.3 km/h 30 % 0.0 mm
16:35 28.4 °C 9.2 °C 1015.8 hPa SSW 14.8 km/h 14.8 km/h 30 % 0.0 mm
16:40 28.7 °C 9.4 °C 1015.8 hPa WSW 13.0 km/h 13.0 km/h 30 % 0.0 mm
16:45 28.4 °C 9.2 °C 1015.8 hPa SSW 13.0 km/h 13.0 km/h 30 % 0.0 mm
16:50 28.8 °C 9.5 °C 1016.8 hPa West 11.1 km/h 11.1 km/h 30 % 0.0 mm
16:55 28.4 °C 8.7 °C 1016.8 hPa SW 16.7 km/h 16.7 km/h 29 % 0.0 mm
17:00 28.1 °C 8.9 °C 1016.8 hPa SSW 18.5 km/h 18.5 km/h 30 % 0.0 mm
17:05 28.7 °C 9.4 °C 1015.8 hPa SW 9.3 km/h 9.3 km/h 30 % 0.0 mm
17:10 28.7 °C 9.4 °C 1015.8 hPa West 11.1 km/h 11.1 km/h 30 % 0.0 mm
17:15 28.8 °C 9.5 °C 1015.8 hPa South 9.3 km/h 9.3 km/h 30 % 0.0 mm
17:20 28.8 °C 9.5 °C 1016.8 hPa SSW 11.1 km/h 11.1 km/h 30 % 0.0 mm
17:25 28.7 °C 9.4 °C 1016.8 hPa SW 14.8 km/h 14.8 km/h 30 % 0.0 mm
17:30 28.5 °C 9.2 °C 1016.8 hPa SW 11.1 km/h 11.1 km/h 30 % 0.0 mm
17:35 28.6 °C 8.8 °C 1016.8 hPa SSW 10.0 km/h 10.0 km/h 29 % 0.0 mm
17:40 28.5 °C 9.2 °C 1016.8 hPa WSW 9.3 km/h 9.3 km/h 30 % 0.0 mm
17:45 28.6 °C 9.3 °C 1016.8 hPa West 4.7 km/h 4.7 km/h 30 % 0.0 mm
17:50 28.7 °C 9.4 °C 1015.8 hPa South 12.6 km/h 12.6 km/h 30 % 0.0 mm
17:55 28.6 °C 9.3 °C 1015.8 hPa South 4.2 km/h 4.2 km/h 30 % 0.0 mm
18:00 28.5 °C 8.7 °C 1015.8 hPa SSW 9.3 km/h 9.3 km/h 29 % 0.0 mm
18:05 28.7 °C 9.4 °C 1015.8 hPa SW 11.1 km/h 11.1 km/h 30 % 0.0 mm
18:10 28.4 °C 8.7 °C 1015.8 hPa ESE 3.7 km/h 3.7 km/h 29 % 0.0 mm
18:15 27.4 °C 8.3 °C 1015.8 hPa SSW 7.4 km/h 7.4 km/h 30 % 0.0 mm
18:20 27.8 °C 8.6 °C 1016.8 hPa SSW 7.4 km/h 7.4 km/h 30 % 0.0 mm
18:25 28.0 °C 8.8 °C 1016.8 hPa SSW 7.4 km/h 7.4 km/h 30 % 0.0 mm
18:30 27.9 °C 8.7 °C 1016.8 hPa SSE 3.7 km/h 3.7 km/h 30 % 0.0 mm
18:35 27.6 °C 8.4 °C 1016.8 hPa SSW 7.4 km/h 7.4 km/h 30 % 0.0 mm
18:40 27.9 °C 9.2 °C 1016.8 hPa WSW 7.4 km/h 7.4 km/h 31 % 0.0 mm
18:45 27.8 °C 9.1 °C 1016.8 hPa SSE 7.4 km/h 7.4 km/h 31 % 0.0 mm
18:50 27.6 °C 8.9 °C 1015.8 hPa SSE 7.4 km/h 7.4 km/h 31 % 0.0 mm
18:55 27.3 °C 8.7 °C 1015.8 hPa WSW 13.0 km/h 13.0 km/h 31 % 0.0 mm
19:00 27.1 °C 8.5 °C 1015.8 hPa SW 9.3 km/h 9.3 km/h 31 % 0.0 mm
19:05 27.1 °C 9.0 °C 1016.8 hPa West 14.0 km/h 14.0 km/h 32 % 0.0 mm
19:10 26.6 °C 8.6 °C 1016.8 hPa SW 13.0 km/h 13.0 km/h 32 % 0.0 mm
19:15 26.1 °C 8.1 °C 1016.8 hPa SW 11.1 km/h 11.1 km/h 32 % 0.0 mm
19:20 25.7 °C 7.8 °C 1015.8 hPa South 11.1 km/h 11.1 km/h 32 % 0.0 mm
19:25 25.5 °C 7.6 °C 1015.8 hPa SSW 9.3 km/h 9.3 km/h 32 % 0.0 mm
19:30 25.3 °C 7.9 °C 1015.8 hPa SW 9.3 km/h 9.3 km/h 33 % 0.0 mm
19:35 25.0 °C 7.6 °C 1015.8 hPa West 11.1 km/h 11.1 km/h 33 % 0.0 mm
19:40 24.9 °C 8.4 °C 1015.8 hPa SW 10.0 km/h 10.0 km/h 35 % 0.0 mm
19:45 24.7 °C 8.2 °C 1015.8 hPa SW 7.4 km/h 7.4 km/h 35 % 0.0 mm
19:50 24.5 °C 8.1 °C 1015.8 hPa SW 13.0 km/h 13.0 km/h 35 % 0.0 mm
19:55 24.3 °C 8.3 °C 1015.8 hPa SW 9.3 km/h 9.3 km/h 36 % 0.0 mm
20:00 24.1 °C 8.5 °C 1015.8 hPa WSW 11.1 km/h 11.1 km/h 37 % 0.0 mm
20:05 23.9 °C 8.3 °C 1016.8 hPa SW 14.8 km/h 14.8 km/h 37 % 0.0 mm
20:10 23.7 °C 8.6 °C 1016.8 hPa WSW 7.4 km/h 7.4 km/h 38 % 0.0 mm
20:15 23.6 °C 8.4 °C 1016.8 hPa SW 11.1 km/h 11.1 km/h 38 % 0.0 mm
20:20 23.5 °C 8.3 °C 1016.8 hPa SW 7.4 km/h 7.4 km/h 38 % 0.0 mm
20:25 23.3 °C 8.6 °C 1016.8 hPa WSW 5.6 km/h 5.6 km/h 39 % 0.0 mm
20:30 23.2 °C 8.8 °C 1016.8 hPa SSW 7.4 km/h 7.4 km/h 40 % 0.0 mm
20:35 23.2 °C 8.8 °C 1017.8 hPa SW 3.7 km/h 3.7 km/h 40 % 0.0 mm
20:40 23.0 °C 8.7 °C 1017.8 hPa SSW 6.4 km/h 6.4 km/h 40 % 0.0 mm
20:45 23.0 °C 9.1 °C 1017.8 hPa WSW 5.6 km/h 5.6 km/h 41 % 0.0 mm
20:50 22.9 °C 8.9 °C 1017.8 hPa WSW 5.8 km/h 5.8 km/h 41 % 0.0 mm
20:55 22.9 °C 9.3 °C 1017.8 hPa SW 10.0 km/h 10.0 km/h 42 % 0.0 mm
21:00 22.7 °C 9.1 °C 1017.8 hPa WSW 6.1 km/h 6.1 km/h 42 % 0.0 mm
21:05 22.6 °C 9.1 °C 1017.8 hPa SW 7.9 km/h 7.9 km/h 42 % 0.0 mm
21:10 22.6 °C 9.1 °C 1017.8 hPa WSW 5.6 km/h 5.6 km/h 42 % 0.0 mm
21:15 22.5 °C 8.9 °C 1017.8 hPa SW 3.7 km/h 3.7 km/h 42 % 0.0 mm
21:20 22.4 °C 8.8 °C 1017.8 hPa SW 4.2 km/h 4.2 km/h 42 % 0.0 mm
21:25 22.2 °C 8.7 °C 1017.8 hPa SW 5.6 km/h 5.6 km/h 42 % 0.0 mm
21:30 22.1 °C 8.6 °C 1017.8 hPa SW 3.7 km/h 3.7 km/h 42 % 0.0 mm
21:35 22.0 °C 8.8 °C 1017.8 hPa SW 3.7 km/h 3.7 km/h 43 % 0.0 mm
21:40 22.0 °C 8.8 °C 1017.8 hPa SW 3.9 km/h 3.9 km/h 43 % 0.0 mm
21:45 21.8 °C 8.7 °C 1017.8 hPa WSW 3.5 km/h   43 % 0.0 mm
21:50 21.7 °C 8.6 °C 1017.8 hPa Calm     43 % 0.0 mm
21:55 21.6 °C 8.5 °C 1017.8 hPa Calm     43 % 0.0 mm
22:00 21.5 °C 8.4 °C 1017.8 hPa Calm     43 % 0.0 mm
22:05 21.4 °C 8.6 °C 1017.8 hPa Calm     44 % 0.0 mm
22:10 21.4 °C 8.6 °C 1017.8 hPa WSW 3.7 km/h 3.7 km/h 44 % 0.0 mm
22:11 21.4 °C 8.6 °C 1017.8 hPa WSW 3.7 km/h 3.7 km/h 44 % 0.0 mm
22:15 17.3 °C 11.1 °C 1017.8 hPa SW 1.6 km/h 3.2 km/h 67 % 0.0 mm
22:16 21.3 °C 8.6 °C 1017.8 hPa NW 2.3 km/h   44 % 0.0 mm
22:21 21.2 °C 8.4 °C 1017.8 hPa Calm     44 % 0.0 mm
22:25 17.4 °C 11.4 °C 1017.8 hPa Calm   3.2 km/h 68 % 0.0 mm
22:26 21.1 °C 8.7 °C 1017.8 hPa NNE 2.3 km/h 2.3 km/h 45 % 0.0 mm
22:31 21.0 °C 8.6 °C 1017.8 hPa NE 3.7 km/h 3.7 km/h 45 % 0.0 mm
22:35 17.6 °C 12.1 °C 1017.8 hPa Calm   3.2 km/h 70 % 0.0 mm
22:36 21.0 °C 8.9 °C 1016.8 hPa NE 1.9 km/h   46 % 0.0 mm
22:41 20.9 °C 9.5 °C 1016.8 hPa NE 2.6 km/h 2.6 km/h 48 % 0.0 mm
22:45 17.6 °C 12.1 °C 1017.8 hPa Calm   3.2 km/h 70 % 0.0 mm
22:46 20.8 °C 10.0 °C 1016.8 hPa East 1.9 km/h 1.9 km/h 50 % 0.0 mm
22:51 20.7 °C 10.2 °C 1017.8 hPa ENE 3.7 km/h 3.7 km/h 51 % 0.0 mm
22:55 17.5 °C 11.7 °C 1017.8 hPa Calm     69 % 0.0 mm
22:56 20.6 °C 10.4 °C 1017.8 hPa NNE 2.6 km/h 2.6 km/h 52 % 0.0 mm
23:01 20.5 °C 10.6 °C 1017.8 hPa NNE 1.9 km/h   53 % 0.0 mm
23:05 17.4 °C 11.7 °C 1017.8 hPa Calm   1.6 km/h 69 % 0.0 mm
23:06 20.4 °C 10.8 °C 1018.8 hPa Calm     54 % 0.0 mm
23:11 20.4 °C 10.8 °C 1018.8 hPa Calm     54 % 0.0 mm
23:15 17.3 °C 11.8 °C 1017.8 hPa NE 1.6 km/h 1.6 km/h 70 % 0.0 mm
23:16 20.3 °C 10.7 °C 1018.8 hPa SW 3.7 km/h 3.7 km/h 54 % 0.0 mm
23:21 20.2 °C 10.6 °C 1017.8 hPa Calm     54 % 0.0 mm
23:25 17.2 °C 11.7 °C 1017.8 hPa Calm     70 % 0.0 mm
23:26 20.2 °C 10.9 °C 1017.8 hPa Calm     55 % 0.0 mm
23:31 20.2 °C 10.9 °C 1017.8 hPa Calm     55 % 0.0 mm
23:35 17.1 °C 11.6 °C 1016.8 hPa Calm   1.6 km/h 70 % 0.0 mm
23:36 20.1 °C 10.8 °C 1018.8 hPa Calm     55 % 0.0 mm
23:41 20.0 °C 10.7 °C 1018.8 hPa SW 1.4 km/h   55 % 0.0 mm
23:45 17.1 °C 11.6 °C 1016.8 hPa Calm     70 % 0.0 mm
23:46 19.9 °C 10.3 °C 1018.8 hPa WSW 1.9 km/h   54 % 0.0 mm
23:51 19.9 °C 10.1 °C 1018.8 hPa WNW 3.7 km/h 3.7 km/h 53 % 0.0 mm
23:55 17.1 °C 11.6 °C 1016.8 hPa NE 1.6 km/h 3.2 km/h 70 % 0.0 mm
23:56 19.8 °C 9.9 °C 1018.8 hPa Calm     53 % 0.0 mm
Meteo Sesrovires
Elogis d' Weather Underground - 3.5 mb

Guio original per  Jim McMurry - jmcmurry@mwt.net Adaptat per a la plantilla per  Wim van der Kuil - Leuven-Template.eu

Trobareu la nostra informacio del temps tambe a:

Weather Underground

AWEKAS